Time;durP1;ratioP1;P1;durP2;ratioP2;P2;SDS_P1;SDS_P2;PMS_P1;PMS_P2;Temp;Humidity;BMP_temperature;BMP_pressure;BME280_temperature;BME280_humidity;BME280_pressure;Samples;Min_cycle;Max_cycle;Signal;HPM_P1;HPM_P2
2021/01/28 00:01:54;;;;;;;8.33;3.60;;;3.90;92.40;;;;;;4992804;28;20038;-75
2021/01/28 00:04:19;;;;;;;6.07;3.57;;;3.90;92.40;;;;;;4992233;28;20042;-74
2021/01/28 00:06:45;;;;;;;4.57;3.23;;;4.00;92.50;;;;;;4993299;28;20026;-74
2021/01/28 00:09:10;;;;;;;6.50;3.67;;;4.00;92.40;;;;;;4972402;28;20058;-73
2021/01/28 00:11:36;;;;;;;4.80;3.03;;;4.00;92.40;;;;;;4993317;28;20547;-73
2021/01/28 00:14:02;;;;;;;5.03;3.20;;;4.00;92.30;;;;;;4989820;28;20038;-73
2021/01/28 00:16:28;;;;;;;5.90;3.63;;;4.00;92.40;;;;;;4975127;28;20034;-73
2021/01/28 00:18:54;;;;;;;5.77;3.37;;;4.00;92.40;;;;;;4975524;28;20045;-73
2021/01/28 00:21:19;;;;;;;5.43;3.40;;;4.00;92.50;;;;;;4992139;28;20033;-73
2021/01/28 00:23:45;;;;;;;4.27;2.93;;;4.10;92.50;;;;;;4975066;28;20035;-73
2021/01/28 00:26:11;;;;;;;3.70;2.77;;;4.10;92.40;;;;;;4992077;28;20045;-72
2021/01/28 00:28:37;;;;;;;4.00;2.90;;;4.10;92.40;;;;;;4993062;28;20113;-73
2021/01/28 00:31:02;;;;;;;5.00;2.97;;;4.10;92.40;;;;;;4974846;28;20117;-72
2021/01/28 00:33:28;;;;;;;5.13;3.17;;;4.10;92.40;;;;;;4975525;28;20193;-73
2021/01/28 00:35:56;;;;;;;4.50;3.03;;;4.10;92.40;;;;;;4991664;28;20508;-72
2021/01/28 00:38:23;;;;;;;4.27;2.70;;;4.10;92.40;;;;;;4989045;28;20041;-73
2021/01/28 00:40:49;;;;;;;5.90;3.03;;;4.30;92.40;;;;;;4992634;28;20030;-73
2021/01/28 00:43:15;;;;;;;4.63;2.60;;;4.20;92.30;;;;;;4991776;28;20153;-73
2021/01/28 00:45:41;;;;;;;3.90;2.63;;;4.20;92.30;;;;;;4974881;28;20046;-73
2021/01/28 00:48:08;;;;;;;5.70;2.77;;;4.20;92.30;;;;;;4974715;28;20038;-73
2021/01/28 00:50:36;;;;;;;3.93;2.50;;;4.20;92.30;;;;;;4975462;28;20045;-73
2021/01/28 00:53:03;;;;;;;4.70;2.70;;;4.20;92.30;;;;;;4994410;28;20050;-73
2021/01/28 00:55:28;;;;;;;4.53;2.43;;;4.20;92.40;;;;;;4979309;28;20126;-73
2021/01/28 00:57:54;;;;;;;5.30;3.20;;;4.30;92.30;;;;;;4996485;28;20424;-73
2021/01/28 01:00:24;;;;;;;4.33;2.70;;;4.30;92.30;;;;;;4978733;28;20038;-72
2021/01/28 01:02:49;;;;;;;7.03;2.50;;;4.30;92.30;;;;;;4979211;28;20034;-73
2021/01/28 01:05:18;;;;;;;4.20;2.60;;;4.30;92.30;;;;;;4995674;28;20399;-73
2021/01/28 01:07:45;;;;;;;3.13;2.47;;;4.30;92.30;;;;;;4995815;28;20383;-73
2021/01/28 01:10:26;;;;;;;4.10;2.53;;;4.30;92.30;;;;;;4958889;28;20042;-73
2021/01/28 01:12:52;;;;;;;4.23;2.67;;;4.30;92.40;;;;;;4977211;28;20031;-73
2021/01/28 01:15:18;;;;;;;7.47;3.00;;;4.30;92.50;;;;;;4958773;28;20129;-73
2021/01/28 01:17:44;;;;;;;3.57;2.63;;;4.30;92.50;;;;;;4977022;28;20464;-73
2021/01/28 01:20:10;;;;;;;6.03;3.17;;;4.30;92.50;;;;;;4958985;28;20046;-74
2021/01/28 01:22:36;;;;;;;3.10;2.10;;;4.30;92.50;;;;;;4959379;28;20074;-73
2021/01/28 01:25:02;;;;;;;5.17;2.73;;;4.30;92.50;;;;;;4977091;28;20082;-73
2021/01/28 01:27:28;;;;;;;4.30;2.50;;;4.40;92.40;;;;;;4959705;28;20086;-74
2021/01/28 01:29:53;;;;;;;4.43;2.17;;;4.40;92.50;;;;;;4977014;28;20535;-73
2021/01/28 01:32:19;;;;;;;3.50;2.57;;;4.40;92.50;;;;;;4976354;28;20042;-73
2021/01/28 01:34:44;;;;;;;3.43;2.37;;;4.40;92.50;;;;;;4959555;28;20038;-73
2021/01/28 01:37:10;;;;;;;3.50;2.73;;;4.40;92.40;;;;;;4958817;28;20043;-74
2021/01/28 01:39:36;;;;;;;4.03;2.40;;;4.40;92.40;;;;;;4959511;28;20042;-74
2021/01/28 01:42:04;;;;;;;2.67;2.20;;;4.40;92.50;;;;;;4959441;28;20093;-74
2021/01/28 01:44:30;;;;;;;4.13;2.40;;;4.40;92.50;;;;;;4976560;28;20065;-73
2021/01/28 01:47:09;;;;;;;4.67;2.47;;;4.40;92.40;;;;;;4976698;28;20527;-74
2021/01/28 01:49:34;;;;;;;3.97;2.43;;;4.50;92.50;;;;;;4976888;28;20038;-74
2021/01/28 01:52:00;;;;;;;3.27;2.47;;;4.40;92.50;;;;;;4976359;28;20153;-74
2021/01/28 01:54:34;;;;;;;3.70;2.20;;;4.40;92.50;;;;;;4975872;28;20118;-73
2021/01/28 01:57:05;;;;;;;4.90;2.03;;;4.50;92.60;;;;;;4976462;28;20027;-73
2021/01/28 01:59:47;;;;;;;2.83;2.05;;;4.50;92.60;;;;;;4959250;28;20035;-74
2021/01/28 02:02:17;;;;;;;2.90;2.00;;;4.50;92.60;;;;;;4975468;28;20547;-74
2021/01/28 02:04:44;;;;;;;2.93;2.03;;;4.50;92.60;;;;;;4957761;28;20046;-74
2021/01/28 02:07:20;;;;;;;2.47;2.13;;;4.50;92.50;;;;;;4975622;28;20034;-74
2021/01/28 02:09:45;;;;;;;2.70;1.90;;;4.50;92.60;;;;;;4976392;28;20023;-73
2021/01/28 02:12:11;;;;;;;3.20;2.03;;;4.50;92.60;;;;;;4975613;28;20097;-74
2021/01/28 02:14:37;;;;;;;2.50;1.83;;;4.50;92.60;;;;;;4958819;28;20558;-74
2021/01/28 02:17:08;;;;;;;3.30;2.20;;;4.50;92.90;;;;;;4976058;28;20031;-74
2021/01/28 02:19:47;;;;;;;2.87;1.93;;;4.50;92.70;;;;;;4958856;28;20035;-75
2021/01/28 02:22:14;;;;;;;2.80;2.00;;;4.50;92.70;;;;;;4957812;28;20082;-73
2021/01/28 02:25:30;;;;;;;4.23;2.10;;;4.50;92.80;;;;;;4975901;28;20043;-73
2021/01/28 02:28:01;;;;;;;3.93;2.00;;;4.50;92.80;;;;;;4950585;28;20062;-74
2021/01/28 02:30:30;;;;;;;4.77;2.00;;;4.50;92.70;;;;;;4975354;28;20062;-73
2021/01/28 02:32:56;;;;;;;2.33;1.70;;;4.50;92.70;;;;;;4975989;28;20027;-73
2021/01/28 02:35:27;;;;;;;3.30;2.20;;;4.50;92.70;;;;;;4957763;28;20395;-73
2021/01/28 02:37:54;;;;;;;2.70;1.70;;;4.60;92.70;;;;;;4958630;28;20097;-73
2021/01/28 02:40:23;;;;;;;2.30;1.90;;;4.60;92.70;;;;;;4975093;28;20114;-73
2021/01/28 02:42:49;;;;;;;4.17;1.83;;;4.60;92.80;;;;;;4975705;28;20031;-74
2021/01/28 02:45:21;;;;;;;3.63;2.17;;;4.60;92.80;;;;;;4957735;28;20380;-73
2021/01/28 02:47:52;;;;;;;3.47;2.27;;;4.60;92.80;;;;;;4975567;28;20105;-74
2021/01/28 02:50:18;;;;;;;3.40;2.33;;;4.60;93.00;;;;;;4957539;28;20498;-73
2021/01/28 02:52:43;;;;;;;3.67;2.50;;;4.50;93.10;;;;;;4975296;28;20046;-74
2021/01/28 02:55:09;;;;;;;2.77;2.20;;;4.60;93.30;;;;;;4974834;28;20159;-73
2021/01/28 02:57:35;;;;;;;4.17;2.43;;;4.50;93.30;;;;;;4975352;28;20476;-73
2021/01/28 03:00:00;;;;;;;3.30;2.40;;;4.60;93.40;;;;;;4975409;28;20464;-74
2021/01/28 03:02:26;;;;;;;4.20;2.50;;;4.60;93.40;;;;;;4957260;28;20035;-73
2021/01/28 03:04:51;;;;;;;4.93;2.70;;;4.50;93.50;;;;;;4975095;28;20047;-73
2021/01/28 03:07:18;;;;;;;4.70;2.60;;;4.50;93.70;;;;;;4957163;28;20458;-73
2021/01/28 03:09:43;;;;;;;5.50;2.33;;;4.50;93.60;;;;;;4957707;28;20130;-73
2021/01/28 03:12:09;;;;;;;4.93;2.30;;;4.50;93.60;;;;;;4974638;28;20110;-73
2021/01/28 03:14:35;;;;;;;3.53;2.47;;;4.50;93.70;;;;;;4975121;28;20038;-73
2021/01/28 03:17:03;;;;;;;4.60;2.60;;;4.60;93.70;;;;;;4974939;28;20031;-73
2021/01/28 03:19:29;;;;;;;3.37;2.20;;;4.60;93.70;;;;;;4957189;28;20693;-74
2021/01/28 03:21:54;;;;;;;4.17;2.33;;;4.60;93.70;;;;;;4957580;28;20035;-73
2021/01/28 03:24:20;;;;;;;3.43;2.43;;;4.60;93.70;;;;;;4956845;28;20039;-73
2021/01/28 03:26:45;;;;;;;4.27;2.47;;;4.50;93.60;;;;;;4974465;28;20114;-73
2021/01/28 03:29:13;;;;;;;4.83;2.37;;;4.50;93.70;;;;;;4956939;28;20495;-73
2021/01/28 03:31:40;;;;;;;3.50;2.33;;;4.60;93.70;;;;;;4957563;28;20066;-73
2021/01/28 03:34:06;;;;;;;3.53;2.43;;;4.60;93.70;;;;;;4974743;28;20035;-74
2021/01/28 03:36:32;;;;;;;3.90;2.37;;;4.60;93.70;;;;;;4956656;28;20034;-73
2021/01/28 03:38:58;;;;;;;4.53;2.60;;;4.60;93.60;;;;;;4957139;28;20039;-73
2021/01/28 03:41:24;;;;;;;5.07;2.27;;;4.60;93.60;;;;;;4974147;28;20043;-74
2021/01/28 03:43:50;;;;;;;3.50;2.60;;;4.60;93.60;;;;;;4957242;28;20038;-73
2021/01/28 03:46:15;;;;;;;3.47;2.17;;;4.60;93.60;;;;;;4955965;28;20483;-73
2021/01/28 03:48:42;;;;;;;2.90;2.30;;;4.60;93.60;;;;;;4974452;28;20056;-73
2021/01/28 03:51:07;;;;;;;3.53;2.30;;;4.60;93.50;;;;;;4974102;28;20141;-73
2021/01/28 03:53:33;;;;;;;3.30;2.53;;;4.60;93.50;;;;;;4973460;28;20516;-73
2021/01/28 03:55:59;;;;;;;5.30;2.70;;;4.60;93.40;;;;;;4956938;28;20042;-73
2021/01/28 03:58:25;;;;;;;3.37;2.20;;;4.60;93.30;;;;;;4973598;28;20035;-73
2021/01/28 04:00:50;;;;;;;3.83;2.50;;;4.60;93.30;;;;;;4956901;28;20041;-74
2021/01/28 04:03:17;;;;;;;4.37;2.70;;;4.60;93.30;;;;;;4973894;28;20035;-73
2021/01/28 04:05:43;;;;;;;4.07;2.40;;;4.60;93.20;;;;;;4974062;28;20039;-73
2021/01/28 04:08:09;;;;;;;3.87;2.37;;;4.60;93.10;;;;;;4956997;28;20134;-73
2021/01/28 04:10:37;;;;;;;2.60;2.00;;;4.60;92.90;;;;;;4956115;28;20456;-73
2021/01/28 04:13:04;;;;;;;3.60;2.33;;;4.70;92.90;;;;;;4956714;28;20066;-73
2021/01/28 04:15:30;;;;;;;3.83;2.50;;;4.60;92.80;;;;;;4973400;28;20043;-73
2021/01/28 04:17:56;;;;;;;4.27;2.70;;;4.60;92.80;;;;;;4956629;28;20057;-73
2021/01/28 04:20:25;;;;;;;3.80;2.63;;;4.70;92.70;;;;;;4955996;28;20487;-73
2021/01/28 04:22:51;;;;;;;4.43;2.67;;;4.60;92.60;;;;;;4956439;28;20070;-73
2021/01/28 04:25:18;;;;;;;3.33;2.30;;;4.60;92.70;;;;;;4972562;28;20101;-73
2021/01/28 04:27:44;;;;;;;3.60;2.50;;;4.70;92.70;;;;;;4973284;28;20027;-73
2021/01/28 04:30:16;;;;;;;3.80;2.67;;;4.60;92.70;;;;;;4956532;28;20046;-74
2021/01/28 04:32:41;;;;;;;3.78;2.58;;;4.60;92.70;;;;;;4973979;28;20037;-74
2021/01/28 04:35:08;;;;;;;4.50;2.70;;;4.60;92.70;;;;;;4973965;28;20042;-73
2021/01/28 04:37:34;;;;;;;5.40;2.43;;;4.60;92.70;;;;;;4955432;28;20287;-73
2021/01/28 04:40:00;;;;;;;6.03;2.57;;;4.70;92.70;;;;;;4956389;28;20034;-73
2021/01/28 04:42:44;;;;;;;4.27;2.87;;;4.60;92.60;;;;;;4973022;28;20546;-73
2021/01/28 04:45:12;;;;;;;4.23;2.60;;;4.60;92.60;;;;;;4973695;28;20035;-73
2021/01/28 04:47:50;;;;;;;3.53;2.47;;;4.60;92.60;;;;;;4973011;28;20030;-73
2021/01/28 04:50:24;;;;;;;3.40;2.47;;;4.70;92.70;;;;;;4955785;28;20035;-73
2021/01/28 04:52:52;;;;;;;7.67;3.13;;;4.70;92.60;;;;;;4973650;28;20078;-73
2021/01/28 04:55:22;;;;;;;4.20;2.93;;;4.70;92.60;;;;;;4972869;28;20081;-73
2021/01/28 04:57:48;;;;;;;5.33;2.50;;;4.70;92.60;;;;;;4973569;28;20090;-74
2021/01/28 05:00:14;;;;;;;4.63;2.43;;;4.70;92.60;;;;;;4956280;28;20034;-73
2021/01/28 05:02:40;;;;;;;5.53;2.97;;;4.70;92.60;;;;;;4972931;28;20423;-73
2021/01/28 05:05:07;;;;;;;3.53;2.50;;;4.70;92.60;;;;;;4973376;28;20047;-73
2021/01/28 05:07:35;;;;;;;3.20;2.20;;;4.70;92.60;;;;;;4955594;28;20510;-73
2021/01/28 05:10:35;;;;;;;4.57;2.77;;;4.70;92.60;;;;;;4973345;28;20035;-73
2021/01/28 05:13:01;;;;;;;3.83;2.50;;;4.70;92.60;;;;;;4956255;28;20038;-73
2021/01/28 05:15:34;;;;;;;4.23;2.60;;;4.70;92.60;;;;;;4955463;28;20039;-73
2021/01/28 05:18:16;;;;;;;4.83;2.80;;;4.60;92.50;;;;;;4973498;28;20038;-72
2021/01/28 05:20:44;;;;;;;4.00;2.63;;;4.70;92.60;;;;;;4972854;28;20519;-73
2021/01/28 05:23:35;;;;;;;5.13;3.20;;;4.70;92.60;;;;;;4973533;28;20050;-74
2021/01/28 05:26:22;;;;;;;3.53;2.50;;;4.70;92.70;;;;;;4973319;28;20043;-73
2021/01/28 05:28:48;;;;;;;5.40;3.13;;;4.70;92.60;;;;;;4972970;28;20265;-74
2021/01/28 05:31:25;;;;;;;4.27;2.77;;;4.70;92.60;;;;;;4973305;28;20596;-74
2021/01/28 05:33:50;;;;;;;3.17;2.40;;;4.70;92.70;;;;;;4973198;28;20035;-75
2021/01/28 05:36:18;;;;;;;4.53;3.00;;;4.70;92.80;;;;;;4972955;28;20519;-74
2021/01/28 05:38:52;;;;;;;4.33;2.77;;;4.70;92.80;;;;;;4957310;28;20045;-72
2021/01/28 05:41:45;;;;;;;4.27;2.63;;;4.60;92.90;;;;;;4959165;28;20043;-73
2021/01/28 05:44:28;;;;;;;3.53;2.40;;;4.70;92.90;;;;;;4976786;28;20038;-73
2021/01/28 05:47:12;;;;;;;6.17;2.70;;;4.70;92.80;;;;;;4976642;28;20060;-72
2021/01/28 05:49:40;;;;;;;4.13;2.93;;;4.70;92.80;;;;;;4975992;28;20250;-74
2021/01/28 05:52:28;;;;;;;5.60;2.90;;;4.70;92.80;;;;;;4976328;28;20046;-74
2021/01/28 05:55:11;;;;;;;4.40;2.50;;;4.70;92.90;;;;;;4959512;28;20085;-74
2021/01/28 05:57:36;;;;;;;5.43;2.70;;;4.70;93.20;;;;;;4975888;28;20085;-74
2021/01/28 06:00:32;;;;;;;4.07;2.90;;;4.80;92.80;;;;;;4976355;28;20427;-74
2021/01/28 06:03:06;;;;;;;4.40;2.80;;;4.80;92.80;;;;;;4976400;28;20035;-75
2021/01/28 06:05:32;;;;;;;4.67;2.90;;;4.80;92.70;;;;;;4958343;28;20184;-74
2021/01/28 06:08:10;;;;;;;5.73;2.97;;;4.80;92.60;;;;;;4976166;28;20043;-74
2021/01/28 06:11:22;;;;;;;4.17;2.53;;;4.80;92.60;;;;;;4975884;28;20031;-76
2021/01/28 06:13:53;;;;;;;3.97;2.38;;;4.80;92.70;;;;;;4976359;28;20085;-75
2021/01/28 06:16:44;;;;;;;3.38;2.70;;;4.80;92.70;;;;;;4975979;28;20046;-76
2021/01/28 06:19:36;;;;;;;5.13;2.70;;;4.80;92.70;;;;;;4976094;28;20435;-74
2021/01/28 06:22:21;;;;;;;3.95;2.28;;;4.90;92.80;;;;;;4958469;28;20035;-74
2021/01/28 06:25:20;;;;;;;4.37;2.43;;;4.90;92.70;;;;;;4975914;28;20440;-73
2021/01/28 06:28:11;;;;;;;3.90;2.60;;;4.90;92.60;;;;;;4958987;28;20503;-74
2021/01/28 06:31:11;;;;;;;5.27;2.80;;;5.00;92.60;;;;;;4957421;28;20039;-74
2021/01/28 06:33:56;;;;;;;3.90;2.43;;;4.90;92.60;;;;;;4975274;28;20038;-75
2021/01/28 06:36:33;;;;;;;4.10;2.70;;;4.90;92.70;;;;;;4975277;28;20086;-74
2021/01/28 06:39:37;;;;;;;5.20;2.63;;;4.90;92.70;;;;;;4975824;28;20042;-74
2021/01/28 06:42:21;;;;;;;3.67;2.73;;;4.90;92.80;;;;;;4945350;28;20050;-74
2021/01/28 06:45:10;;;;;;;4.37;2.87;;;4.90;92.80;;;;;;4975795;28;20043;-75
2021/01/28 06:47:54;;;;;;;5.33;2.90;;;4.90;92.70;;;;;;4957802;28;20031;-74
2021/01/28 06:50:30;;;;;;;3.00;2.40;;;4.90;92.90;;;;;;4957621;28;20546;-75
2021/01/28 06:53:18;;;;;;;5.03;2.77;;;4.90;92.90;;;;;;4975171;28;20483;-74
2021/01/28 06:55:50;;;;;;;4.17;2.57;;;4.90;93.00;;;;;;4975000;28;20035;-74
2021/01/28 06:58:37;;;;;;;3.37;2.53;;;4.90;92.90;;;;;;4975197;28;20491;-74
2021/01/28 07:01:19;;;;;;;6.13;2.90;;;4.90;92.90;;;;;;4958313;28;20039;-75
2021/01/28 07:04:09;;;;;;;4.23;2.80;;;4.90;93.30;;;;;;4957448;28;20093;-74
2021/01/28 07:07:02;;;;;;;3.90;2.57;;;4.90;93.00;;;;;;4974726;28;20039;-74
2021/01/28 07:09:33;;;;;;;4.25;2.67;;;4.90;93.10;;;;;;4957439;28;20043;-74
2021/01/28 07:12:04;;;;;;;5.28;3.28;;;5.00;93.20;;;;;;4957800;28;20069;-74
2021/01/28 07:14:30;;;;;;;4.33;2.90;;;5.00;93.10;;;;;;4957303;28;20042;-74
2021/01/28 07:17:12;;;;;;;4.93;2.87;;;5.00;93.20;;;;;;4957458;28;20055;-75
2021/01/28 07:19:41;;;;;;;4.70;2.90;;;5.00;93.10;;;;;;4974622;28;20074;-75
2021/01/28 07:22:30;;;;;;;6.13;2.87;;;5.00;93.10;;;;;;4957911;28;20039;-74
2021/01/28 07:25:17;;;;;;;4.50;3.13;;;5.00;93.20;;;;;;4957885;28;20513;-75
2021/01/28 07:28:14;;;;;;;4.53;2.90;;;5.10;93.30;;;;;;4974365;28;20169;-74
2021/01/28 07:30:47;;;;;;;6.67;3.50;;;5.10;93.30;;;;;;4956982;28;20038;-74
2021/01/28 07:33:25;;;;;;;5.27;3.40;;;5.10;93.20;;;;;;4957674;28;20080;-74
2021/01/28 07:36:21;;;;;;;5.67;2.90;;;5.20;93.60;;;;;;4974754;28;20035;-74
2021/01/28 07:38:55;;;;;;;4.07;2.80;;;5.20;93.30;;;;;;4973550;28;20476;-74
2021/01/28 07:41:27;;;;;;;7.23;4.33;;;5.20;93.30;;;;;;4974724;28;20035;-74
2021/01/28 07:44:14;;;;;;;10.48;5.65;;;5.30;93.30;;;;;;4974775;28;20054;-74
2021/01/28 07:46:40;;;;;;;5.53;3.77;;;5.30;93.40;;;;;;4956595;28;20135;-74
2021/01/28 07:49:33;;;;;;;4.07;2.70;;;5.30;93.30;;;;;;4957201;28;20035;-74
2021/01/28 07:52:02;;;;;;;4.17;2.50;;;5.30;93.30;;;;;;4971789;28;20122;-72
2021/01/28 07:54:27;;;;;;;3.20;2.60;;;5.30;93.30;;;;;;4973557;28;20094;-72
2021/01/28 07:56:59;;;;;;;6.23;2.47;;;5.30;93.30;;;;;;4974350;28;20392;-73
2021/01/28 07:59:30;;;;;;;5.45;2.22;;;5.30;93.20;;;;;;4956970;28;20098;-73
2021/01/28 08:02:09;;;;;;;3.05;2.17;;;5.40;93.30;;;;;;4955964;28;20066;-73
2021/01/28 08:04:47;;;;;;;3.47;2.13;;;5.40;93.20;;;;;;4973610;28;20043;-73
2021/01/28 08:07:21;;;;;;;4.80;2.80;;;5.50;93.20;;;;;;4956951;28;20109;-74
2021/01/28 08:09:52;;;;;;;5.60;2.53;;;5.50;93.20;;;;;;4973568;28;20577;-74
2021/01/28 08:12:43;;;;;;;5.05;2.53;;;5.50;93.10;;;;;;4974307;28;20042;-74
2021/01/28 08:15:16;;;;;;;2.83;1.97;;;5.50;93.20;;;;;;4974294;28;20041;-74
2021/01/28 08:17:42;;;;;;;3.63;2.10;;;5.50;93.20;;;;;;4956169;28;20432;-74
2021/01/28 08:20:18;;;;;;;3.07;1.90;;;5.50;93.20;;;;;;4956780;28;20079;-74
2021/01/28 08:23:05;;;;;;;2.67;2.00;;;5.50;93.20;;;;;;4973154;28;20558;-74
2021/01/28 08:25:34;;;;;;;3.30;2.00;;;5.50;93.20;;;;;;4973484;28;20384;-74
2021/01/28 08:28:15;;;;;;;4.83;2.07;;;5.50;93.30;;;;;;4956792;28;20049;-74
2021/01/28 08:30:42;;;;;;;4.43;1.97;;;5.50;93.40;;;;;;4973244;28;20051;-74
2021/01/28 08:33:19;;;;;;;3.40;2.10;;;5.50;93.50;;;;;;4974151;28;20093;-74
2021/01/28 08:35:49;;;;;;;3.20;2.17;;;5.50;93.30;;;;;;4973631;28;20073;-74
2021/01/28 08:38:17;;;;;;;3.27;1.90;;;5.50;93.20;;;;;;4956477;28;20031;-74
2021/01/28 08:40:45;;;;;;;3.30;2.30;;;5.50;93.20;;;;;;4973148;28;20098;-73
2021/01/28 08:43:19;;;;;;;5.20;2.47;;;5.50;93.20;;;;;;4956242;28;20035;-73
2021/01/28 08:45:45;;;;;;;3.43;2.10;;;5.50;93.20;;;;;;4973042;28;20115;-73
2021/01/28 08:48:14;;;;;;;3.40;2.17;;;5.50;93.20;;;;;;4956369;28;20043;-73
2021/01/28 08:50:41;;;;;;;4.83;2.57;;;5.60;93.20;;;;;;4972974;28;20034;-73
2021/01/28 08:53:19;;;;;;;5.30;2.60;;;5.60;93.20;;;;;;4973651;28;20126;-73
2021/01/28 08:55:45;;;;;;;4.97;2.40;;;5.70;93.20;;;;;;4973094;28;20066;-73
2021/01/28 08:58:24;;;;;;;6.50;2.47;;;5.70;93.20;;;;;;4973493;28;20456;-73
2021/01/28 09:00:57;;;;;;;6.10;2.20;;;5.70;93.20;;;;;;4955539;28;20498;-73
2021/01/28 09:03:30;;;;;;;5.50;2.17;;;5.80;93.30;;;;;;4973506;28;20110;-73
2021/01/28 09:05:59;;;;;;;3.73;1.53;;;5.80;93.30;;;;;;4956098;28;20503;-73
2021/01/28 09:08:35;;;;;;;3.67;1.90;;;5.80;93.50;;;;;;4955950;28;20392;-73
2021/01/28 09:11:29;;;;;;;3.70;1.80;;;5.90;93.70;;;;;;4955940;28;20045;-73
2021/01/28 09:14:23;;;;;;;3.73;2.17;;;5.90;93.80;;;;;;4972473;28;20410;-73
2021/01/28 09:16:58;;;;;;;3.67;1.77;;;5.90;94.20;;;;;;4963439;28;20063;-73
2021/01/28 09:19:25;;;;;;;3.50;1.70;;;6.10;94.60;;;;;;4959839;28;20035;-73
2021/01/28 09:22:43;;;;;;;1.90;1.20;;;6.20;95.10;;;;;;4958768;28;20503;-73
2021/01/28 09:25:20;;;;;;;2.43;0.80;;;6.30;95.00;;;;;;4960221;28;20054;-73
2021/01/28 09:28:11;;;;;;;1.40;0.90;;;6.50;95.30;;;;;;4958972;28;20037;-73
2021/01/28 09:30:43;;;;;;;2.10;0.87;;;6.60;95.30;;;;;;4976488;28;20035;-73
2021/01/28 09:33:31;;;;;;;2.03;0.60;;;6.70;95.40;;;;;;4959260;28;20129;-74
2021/01/28 09:36:04;;;;;;;2.63;1.10;;;6.80;95.50;;;;;;4976851;28;20391;-73
2021/01/28 09:38:30;;;;;;;2.00;0.60;;;6.90;95.40;;;;;;4959599;28;20082;-73
2021/01/28 09:41:17;;;;;;;1.93;0.60;;;7.00;95.40;;;;;;4958356;28;20043;-74
2021/01/28 09:43:44;;;;;;;3.17;0.70;;;7.10;95.30;;;;;;4959674;28;20039;-73
2021/01/28 09:46:10;;;;;;;2.53;0.70;;;7.10;95.30;;;;;;4959008;28;20047;-73
2021/01/28 09:48:37;;;;;;;0.70;0.50;;;7.20;95.20;;;;;;4956402;28;20392;-74
2021/01/28 09:51:04;;;;;;;1.20;0.50;;;7.30;95.20;;;;;;4957753;28;20125;-74
2021/01/28 09:53:31;;;;;;;1.97;0.70;;;7.30;95.10;;;;;;4958879;28;20039;-74
2021/01/28 09:55:56;;;;;;;1.63;0.60;;;7.30;95.10;;;;;;4958196;28;20054;-78
2021/01/28 09:58:22;;;;;;;1.63;0.60;;;7.40;95.00;;;;;;4957965;28;20038;-78
2021/01/28 10:00:49;;;;;;;0.93;0.50;;;7.50;95.00;;;;;;4976638;28;20038;-81
2021/01/28 10:03:15;;;;;;;2.10;0.60;;;7.50;95.00;;;;;;4960289;28;20081;-80
2021/01/28 10:05:40;;;;;;;1.00;0.60;;;7.60;94.90;;;;;;4976054;28;20063;-74
2021/01/28 10:08:06;;;;;;;3.07;0.60;;;7.60;94.80;;;;;;4976346;28;20034;-74
2021/01/28 10:10:35;;;;;;;0.60;0.50;;;7.60;94.70;;;;;;4958310;28;20086;-74
2021/01/28 10:13:05;;;;;;;1.57;0.80;;;7.70;94.80;;;;;;4975869;28;20138;-74
2021/01/28 10:15:30;;;;;;;1.87;0.50;;;7.70;94.80;;;;;;4975665;28;20086;-74
2021/01/28 10:17:57;;;;;;;0.80;0.50;;;7.70;94.70;;;;;;4975258;28;20034;-76
2021/01/28 10:20:30;;;;;;;1.07;0.47;;;7.80;94.70;;;;;;4976110;28;20031;-76
2021/01/28 10:23:02;;;;;;;0.50;0.50;;;7.80;94.60;;;;;;4957514;28;20035;-76
2021/01/28 10:25:28;;;;;;;1.63;0.77;;;7.80;94.60;;;;;;4974784;28;20522;-75
2021/01/28 10:27:54;;;;;;;0.50;0.40;;;7.80;94.60;;;;;;4975521;28;20334;-75
2021/01/28 10:30:22;;;;;;;0.83;0.43;;;7.90;94.60;;;;;;4975876;28;20074;-75
2021/01/28 10:32:49;;;;;;;0.40;0.40;;;7.90;94.60;;;;;;4975452;28;20123;-74
2021/01/28 10:35:17;;;;;;;0.87;0.40;;;7.90;94.50;;;;;;4958713;28;20400;-76
2021/01/28 10:37:42;;;;;;;0.70;0.60;;;8.00;94.50;;;;;;4982190;28;20081;-76
2021/01/28 10:40:09;;;;;;;2.77;0.60;;;8.00;94.50;;;;;;4988360;28;20042;-76
2021/01/28 10:42:40;;;;;;;0.90;0.40;;;8.00;94.60;;;;;;4968593;28;20041;-76
2021/01/28 10:45:13;;;;;;;3.20;0.60;;;8.00;94.50;;;;;;4993060;28;20157;-77
2021/01/28 10:47:39;;;;;;;2.73;0.63;;;8.00;94.50;;;;;;4994017;28;20436;-75
2021/01/28 10:50:06;;;;;;;1.43;0.53;;;8.00;94.60;;;;;;4967241;28;20050;-75
2021/01/28 10:52:32;;;;;;;1.03;0.30;;;8.00;94.50;;;;;;4976833;28;20046;-75
2021/01/28 10:54:58;;;;;;;0.90;0.43;;;8.00;94.60;;;;;;4976418;28;20102;-75
2021/01/28 10:57:23;;;;;;;2.60;0.60;;;8.00;94.70;;;;;;4994364;28;20038;-75
2021/01/28 10:59:49;;;;;;;1.43;0.40;;;8.10;94.60;;;;;;4976673;28;20057;-75
2021/01/28 11:02:14;;;;;;;1.17;0.70;;;8.20;94.60;;;;;;4976796;28;20109;-75
2021/01/28 11:04:40;;;;;;;3.70;0.60;;;8.30;94.50;;;;;;4976074;28;20513;-75
2021/01/28 11:07:06;;;;;;;1.17;0.70;;;8.50;94.30;;;;;;4973196;28;20530;-74
2021/01/28 11:09:31;;;;;;;1.10;0.57;;;8.50;94.10;;;;;;4991359;28;20037;-75
2021/01/28 11:11:57;;;;;;;1.27;0.40;;;8.60;94.00;;;;;;4962587;28;20026;-75
2021/01/28 11:14:23;;;;;;;2.47;0.83;;;8.70;93.80;;;;;;4973888;28;20034;-75
2021/01/28 11:16:49;;;;;;;1.20;0.50;;;8.70;93.90;;;;;;4976166;28;20125;-76
2021/01/28 11:19:15;;;;;;;0.53;0.40;;;8.70;94.00;;;;;;4994283;28;20125;-75
2021/01/28 11:21:41;;;;;;;0.93;0.40;;;8.60;94.10;;;;;;4993824;28;20529;-74
2021/01/28 11:24:08;;;;;;;2.83;0.50;;;8.60;94.10;;;;;;4966918;28;20031;-76
2021/01/28 11:26:34;;;;;;;0.77;0.40;;;8.70;94.10;;;;;;4976800;28;20181;-76
2021/01/28 11:28:59;;;;;;;0.97;0.43;;;8.70;94.10;;;;;;4976137;28;20121;-75
2021/01/28 11:31:25;;;;;;;1.63;0.50;;;8.70;94.10;;;;;;4984651;28;20046;-76
2021/01/28 11:33:51;;;;;;;1.73;0.50;;;8.80;94.10;;;;;;4975159;28;20057;-76
2021/01/28 11:36:16;;;;;;;0.43;0.30;;;8.80;94.10;;;;;;4993948;28;20049;-76
2021/01/28 11:38:43;;;;;;;1.13;0.60;;;8.80;94.00;;;;;;4975740;28;20510;-74
2021/01/28 11:41:09;;;;;;;1.05;0.45;;;8.80;94.00;;;;;;4972286;28;20042;-74
2021/01/28 11:43:35;;;;;;;0.88;0.45;;;8.80;94.30;;;;;;4976229;28;20039;-73
2021/01/28 11:46:01;;;;;;;1.53;0.50;;;8.90;94.00;;;;;;4976039;28;20048;-74
2021/01/28 11:48:27;;;;;;;2.10;0.40;;;8.90;94.10;;;;;;4994513;28;20117;-79
2021/01/28 11:50:53;;;;;;;0.50;0.30;;;8.90;94.10;;;;;;4993626;28;20027;-78
2021/01/28 11:53:19;;;;;;;0.70;0.40;;;9.00;94.00;;;;;;4973100;28;20051;-76
2021/01/28 11:55:44;;;;;;;0.95;0.50;;;9.00;94.00;;;;;;4974280;28;20050;-76
2021/01/28 11:58:11;;;;;;;1.90;0.40;;;9.00;94.10;;;;;;4973018;28;20121;-75
2021/01/28 12:00:37;;;;;;;0.80;0.50;;;9.10;94.20;;;;;;4974283;28;20049;-75
2021/01/28 12:03:04;;;;;;;1.92;0.50;;;9.00;94.30;;;;;;4972661;28;20129;-77
2021/01/28 12:05:30;;;;;;;0.75;0.40;;;9.10;94.30;;;;;;4974422;28;20043;-77
2021/01/28 12:07:57;;;;;;;2.03;0.60;;;9.10;94.30;;;;;;4956382;28;20504;-74
2021/01/28 12:10:25;;;;;;;1.67;0.63;;;9.10;94.30;;;;;;4969464;28;20479;-77
2021/01/28 12:12:51;;;;;;;0.73;0.65;;;9.10;94.30;;;;;;4972404;28;20039;-76
2021/01/28 12:15:18;;;;;;;1.73;0.68;;;9.10;94.30;;;;;;4972670;28;20596;-74
2021/01/28 12:17:46;;;;;;;1.13;0.52;;;9.20;94.40;;;;;;4972197;28;20035;-75
2021/01/28 12:20:13;;;;;;;2.10;0.57;;;9.20;94.30;;;;;;4973364;28;20400;-76
2021/01/28 12:22:38;;;;;;;2.00;0.57;;;9.20;94.30;;;;;;4971697;28;20039;-75
2021/01/28 12:25:05;;;;;;;1.08;0.60;;;9.30;94.20;;;;;;4972977;28;20436;-75
2021/01/28 12:27:31;;;;;;;0.70;0.40;;;9.30;94.10;;;;;;4973532;28;20360;-75
2021/01/28 12:30:00;;;;;;;0.65;0.30;;;9.30;94.00;;;;;;4972889;28;20075;-75
2021/01/28 12:32:26;;;;;;;1.55;0.65;;;9.40;94.10;;;;;;4971823;28;20045;-75
2021/01/28 12:34:51;;;;;;;1.03;0.67;;;9.40;94.10;;;;;;4973248;28;20030;-76
2021/01/28 12:37:17;;;;;;;2.65;0.55;;;9.40;94.10;;;;;;4972635;28;20040;-76
2021/01/28 12:39:43;;;;;;;0.82;0.63;;;9.50;94.00;;;;;;4970083;28;20028;-76
2021/01/28 12:42:09;;;;;;;1.20;0.60;;;9.50;94.00;;;;;;4971972;28;20130;-77
2021/01/28 12:44:35;;;;;;;2.00;0.60;;;9.60;94.00;;;;;;4973403;28;20030;-77
2021/01/28 12:47:00;;;;;;;1.13;0.70;;;9.60;93.90;;;;;;4971757;28;20039;-75
2021/01/28 12:49:26;;;;;;;1.02;0.55;;;9.60;94.00;;;;;;4971658;28;20391;-74
2021/01/28 12:51:53;;;;;;;1.00;0.50;;;9.60;94.10;;;;;;4971282;28;20054;-75
2021/01/28 12:54:19;;;;;;;0.95;0.60;;;9.60;94.10;;;;;;4973476;28;20043;-75
2021/01/28 12:56:46;;;;;;;1.05;0.52;;;9.60;94.20;;;;;;4972112;28;20508;-75
2021/01/28 12:59:11;;;;;;;0.90;0.60;;;9.70;94.20;;;;;;4972008;28;20446;-75
2021/01/28 13:01:37;;;;;;;1.40;0.80;;;9.70;94.20;;;;;;4973346;28;20037;-75
2021/01/28 13:04:03;;;;;;;1.80;0.90;;;9.70;94.20;;;;;;4971199;28;20038;-74
2021/01/28 13:06:29;;;;;;;0.98;0.60;;;9.70;94.20;;;;;;4971762;28;20633;-73
2021/01/28 13:08:55;;;;;;;1.00;0.70;;;9.80;94.10;;;;;;4970951;28;20031;-73
2021/01/28 13:11:21;;;;;;;1.40;0.63;;;9.90;94.10;;;;;;4968786;28;20379;-72
2021/01/28 13:13:47;;;;;;;1.15;0.80;;;9.90;94.10;;;;;;4971170;28;20031;-72
2021/01/28 13:16:13;;;;;;;1.85;0.65;;;9.90;94.10;;;;;;4972869;28;20369;-72
2021/01/28 13:18:38;;;;;;;2.35;0.80;;;10.00;94.10;;;;;;4972902;28;20047;-72